Historique des mesures à Cassis (13260), France
Quotidien Résumé Janvier 23, 2018 Unités:  US    Métrique   Métrique/US
« Précédent (Jour)
Suivant (Jour) »
Quotidien Hebdomadaire Mensuel Annuel Période au choix
  Maximum: Minimum: Moyenne:
Température: 32 °F 51.6 °F 54.5 °F
Point de rosée: 32 °F 37.2 °F 40.3 °F
Humidité: Humidity % 47 % 55 %
Vitesse du vent: WindSpeedKMH mph 0.0 mph 11 mph
Rafales: WindSpeedGustKMH mph - -
Vent:- - WSW
Pression: 0 in 29.9 in -
Précipitations: 0 in    
Historical Graphs
 
 
Mesures pour : Janvier 23, 2018
Heure Temperature Point de rosée Pression Vent Vitesse du vent Rafales Humidité Pluie (par heure) Conditions
32 °F 32 °F 0 in Calm     Humidity % 0 in SoftwareType W/m2
00:12 57 °F 44.1 °F 29.9 in WNW 14.3 mph 38.5 mph 62 % 0 in open2300-1.11 W/m2
01:12 56.8 °F 44.2 °F 30 in WNW 14.3 mph 14.3 mph 63 % 0 in open2300-1.11 W/m2
02:12 55.8 °F 44.4 °F 29.9 in North 16.6 mph 16.6 mph 66 % 0 in open2300-1.11 W/m2
03:12 55.8 °F 45 °F 29.9 in NNW 23.0 mph 23.0 mph 67 % 0 in open2300-1.11 W/m2
05:12 54.3 °F 42.8 °F 30 in NW 13.7 mph 20.1 mph 65 % 0 in open2300-1.11 W/m2
06:12 54 °F 41.5 °F 30 in WNW 32.0 mph 32.0 mph 63 % 0 in open2300-1.11 W/m2
07:12 52.5 °F 40.6 °F 30 in NW 18.0 mph 21.9 mph 64 % 0 in open2300-1.11 W/m2
08:12 53.2 °F 40.5 °F 30 in Calm   12.2 mph 62 % 0 in open2300-1.11 W/m2
09:12 53.2 °F 40.1 °F 30 in NNW 14.0 mph 15.4 mph 61 % 0 in open2300-1.11 W/m2
10:12 54.1 °F 39.2 °F 30 in NW 27.7 mph 30.6 mph 57 % 0 in open2300-1.11 W/m2
11:12 56.8 °F 39.9 °F 30 in NNW 3.2 mph 4.0 mph 53 % 0 in open2300-1.11 W/m2
13:12 58.3 °F 40.3 °F 30 in NNE 14.8 mph 14.8 mph 51 % 0 in open2300-1.11 W/m2
14:12 59.9 °F 40.6 °F 30.1 in NW 10.8 mph 17.2 mph 49 % 0 in open2300-1.11 W/m2
15:12 60.6 °F 40.3 °F 30 in NNW 5.5 mph 8.7 mph 47 % 0 in open2300-1.11 W/m2
17:12 59.4 °F 39.6 °F 30.1 in WNW 21.2 mph 23.3 mph 48 % 0 in open2300-1.11 W/m2
19:12 57 °F 38.1 °F 30.1 in NNE 1.4 mph 2.6 mph 49 % 0 in open2300-1.11 W/m2
20:12 54.7 °F 37.8 °F 30.1 in Calm   8.2 mph 53 % 0 in open2300-1.11 W/m2
21:12 54.1 °F 38.1 °F 30.2 in Calm     55 % 0 in open2300-1.11 W/m2
22:12 52.2 °F 37.2 °F 30.2 in Calm     57 % 0 in open2300-1.11 W/m2
23:12 51.6 °F 37.8 °F 30.2 in Calm     59 % 0 in open2300-1.11 W/m2
Observations météo à CASSIS
WU-History script by Weather Underground - 1 mb